sensor_id;sensor_type;location;lat;lon;timestamp;temperature;humidity
52439;DHT22;38359;53.150;6.504;2023-05-01T00:06:17;9.40;99.90
52439;DHT22;38359;53.150;6.504;2023-05-01T00:16:43;9.30;99.90
52439;DHT22;38359;53.150;6.504;2023-05-01T00:27:10;9.40;99.90
52439;DHT22;38359;53.150;6.504;2023-05-01T00:37:36;9.30;99.90
52439;DHT22;38359;53.150;6.504;2023-05-01T00:48:03;9.30;99.90
52439;DHT22;38359;53.150;6.504;2023-05-01T00:58:30;9.10;99.90
52439;DHT22;38359;53.150;6.504;2023-05-01T01:20:43;9.10;99.90
52439;DHT22;38359;53.150;6.504;2023-05-01T01:32:00;9.00;99.90
52439;DHT22;38359;53.150;6.504;2023-05-01T01:42:35;8.70;99.90
52439;DHT22;38359;53.150;6.504;2023-05-01T01:53:04;8.70;99.90
52439;DHT22;38359;53.150;6.504;2023-05-01T02:03:32;8.60;99.90
52439;DHT22;38359;53.150;6.504;2023-05-01T02:14:00;8.50;99.90
52439;DHT22;38359;53.150;6.504;2023-05-01T02:24:29;8.50;99.90
52439;DHT22;38359;53.150;6.504;2023-05-01T02:34:56;8.40;99.90
52439;DHT22;38359;53.150;6.504;2023-05-01T02:45:23;8.40;99.90
52439;DHT22;38359;53.150;6.504;2023-05-01T02:55:50;8.30;99.90
52439;DHT22;38359;53.150;6.504;2023-05-01T03:06:15;8.20;99.90
52439;DHT22;38359;53.150;6.504;2023-05-01T03:16:41;7.90;99.90
52439;DHT22;38359;53.150;6.504;2023-05-01T03:27:08;7.80;99.90
52439;DHT22;38359;53.150;6.504;2023-05-01T03:37:34;7.80;99.90
52439;DHT22;38359;53.150;6.504;2023-05-01T03:47:59;7.60;99.90
52439;DHT22;38359;53.150;6.504;2023-05-01T03:58:25;7.60;99.90
52439;DHT22;38359;53.150;6.504;2023-05-01T04:08:51;7.50;99.90
52439;DHT22;38359;53.150;6.504;2023-05-01T04:19:17;7.40;99.90
52439;DHT22;38359;53.150;6.504;2023-05-01T04:29:43;7.50;99.90
52439;DHT22;38359;53.150;6.504;2023-05-01T04:40:09;7.40;99.90
52439;DHT22;38359;53.150;6.504;2023-05-01T04:50:35;7.50;99.90
52439;DHT22;38359;53.150;6.504;2023-05-01T05:01:02;7.70;99.90
52439;DHT22;38359;53.150;6.504;2023-05-01T05:11:27;7.90;99.90
52439;DHT22;38359;53.150;6.504;2023-05-01T05:21:53;8.20;99.90
52439;DHT22;38359;53.150;6.504;2023-05-01T05:32:19;8.60;99.90
52439;DHT22;38359;53.150;6.504;2023-05-01T05:42:45;8.70;99.90
52439;DHT22;38359;53.150;6.504;2023-05-01T05:53:10;8.90;99.90
52439;DHT22;38359;53.150;6.504;2023-05-01T06:03:37;9.10;99.90
52439;DHT22;38359;53.150;6.504;2023-05-01T06:14:03;9.20;99.90
52439;DHT22;38359;53.150;6.504;2023-05-01T06:24:29;9.50;99.90
52439;DHT22;38359;53.150;6.504;2023-05-01T06:34:55;9.60;99.90
52439;DHT22;38359;53.150;6.504;2023-05-01T06:45:29;9.90;99.90
52439;DHT22;38359;53.150;6.504;2023-05-01T06:55:55;10.10;99.90
52439;DHT22;38359;53.150;6.504;2023-05-01T07:06:21;10.50;99.90
52439;DHT22;38359;53.150;6.504;2023-05-01T07:16:47;10.60;99.90
52439;DHT22;38359;53.150;6.504;2023-05-01T07:27:13;10.90;99.90
52439;DHT22;38359;53.150;6.504;2023-05-01T07:37:39;11.30;99.90
52439;DHT22;38359;53.150;6.504;2023-05-01T07:48:05;11.70;99.90
52439;DHT22;38359;53.150;6.504;2023-05-01T07:58:31;12.50;99.90
52439;DHT22;38359;53.150;6.504;2023-05-01T08:08:57;12.50;99.90
52439;DHT22;38359;53.150;6.504;2023-05-01T08:19:23;13.00;99.90
52439;DHT22;38359;53.150;6.504;2023-05-01T08:29:48;13.10;99.90
52439;DHT22;38359;53.150;6.504;2023-05-01T08:40:14;13.00;99.90
52439;DHT22;38359;53.150;6.504;2023-05-01T08:50:45;13.60;99.90
52439;DHT22;38359;53.150;6.504;2023-05-01T09:01:14;14.20;99.90
52439;DHT22;38359;53.150;6.504;2023-05-01T09:11:43;14.50;99.90
52439;DHT22;38359;53.150;6.504;2023-05-01T09:22:09;15.10;99.90
52439;DHT22;38359;53.150;6.504;2023-05-01T09:32:35;14.90;99.90
52439;DHT22;38359;53.150;6.504;2023-05-01T09:43:01;15.20;99.90
52439;DHT22;38359;53.150;6.504;2023-05-01T09:53:37;15.40;99.90
52439;DHT22;38359;53.150;6.504;2023-05-01T10:04:03;15.60;99.90
52439;DHT22;38359;53.150;6.504;2023-05-01T10:14:29;15.70;99.90
52439;DHT22;38359;53.150;6.504;2023-05-01T10:24:58;16.70;99.90
52439;DHT22;38359;53.150;6.504;2023-05-01T10:35:31;16.10;97.80
52439;DHT22;38359;53.150;6.504;2023-05-01T10:56:45;16.40;95.90
52439;DHT22;38359;53.150;6.504;2023-05-01T11:07:13;16.90;95.90
52439;DHT22;38359;53.150;6.504;2023-05-01T11:28:08;17.30;97.00
52439;DHT22;38359;53.150;6.504;2023-05-01T11:38:34;17.80;95.20
52439;DHT22;38359;53.150;6.504;2023-05-01T11:49:00;17.60;93.90
52439;DHT22;38359;53.150;6.504;2023-05-01T11:59:27;19.00;90.20
52439;DHT22;38359;53.150;6.504;2023-05-01T12:09:54;18.80;90.30
52439;DHT22;38359;53.150;6.504;2023-05-01T12:20:34;18.90;90.10
52439;DHT22;38359;53.150;6.504;2023-05-01T12:31:01;18.00;86.80
52439;DHT22;38359;53.150;6.504;2023-05-01T12:41:46;18.60;92.70
52439;DHT22;38359;53.150;6.504;2023-05-01T12:52:13;18.60;90.20
52439;DHT22;38359;53.150;6.504;2023-05-01T13:02:38;19.50;91.10
52439;DHT22;38359;53.150;6.504;2023-05-01T13:13:05;20.50;82.70
52439;DHT22;38359;53.150;6.504;2023-05-01T13:23:31;19.10;86.70
52439;DHT22;38359;53.150;6.504;2023-05-01T13:33:58;18.30;86.90
52439;DHT22;38359;53.150;6.504;2023-05-01T13:44:24;18.00;92.10
52439;DHT22;38359;53.150;6.504;2023-05-01T13:54:51;17.60;94.90
52439;DHT22;38359;53.150;6.504;2023-05-01T14:05:25;17.10;95.80
52439;DHT22;38359;53.150;6.504;2023-05-01T14:15:54;17.30;97.50
52439;DHT22;38359;53.150;6.504;2023-05-01T14:26:20;16.70;99.90
52439;DHT22;38359;53.150;6.504;2023-05-01T14:36:48;16.90;99.90
52439;DHT22;38359;53.150;6.504;2023-05-01T14:47:19;16.60;99.90
52439;DHT22;38359;53.150;6.504;2023-05-01T14:57:47;16.70;99.90
52439;DHT22;38359;53.150;6.504;2023-05-01T15:08:13;16.70;99.90
52439;DHT22;38359;53.150;6.504;2023-05-01T15:18:39;16.80;99.90
52439;DHT22;38359;53.150;6.504;2023-05-01T15:29:05;17.20;99.90
52439;DHT22;38359;53.150;6.504;2023-05-01T15:39:31;17.10;99.90
52439;DHT22;38359;53.150;6.504;2023-05-01T15:49:57;16.50;99.90
52439;DHT22;38359;53.150;6.504;2023-05-01T16:00:23;16.20;99.90
52439;DHT22;38359;53.150;6.504;2023-05-01T16:10:49;16.50;99.90
52439;DHT22;38359;53.150;6.504;2023-05-01T16:21:15;16.80;99.90
52439;DHT22;38359;53.150;6.504;2023-05-01T16:31:43;16.60;99.90
52439;DHT22;38359;53.150;6.504;2023-05-01T16:42:11;16.40;99.90
52439;DHT22;38359;53.150;6.504;2023-05-01T16:52:37;16.20;99.90
52439;DHT22;38359;53.150;6.504;2023-05-01T17:03:06;17.90;99.90
52439;DHT22;38359;53.150;6.504;2023-05-01T17:13:31;18.40;99.90
52439;DHT22;38359;53.150;6.504;2023-05-01T17:23:57;19.70;99.90
52439;DHT22;38359;53.150;6.504;2023-05-01T17:34:23;17.10;99.90
52439;DHT22;38359;53.150;6.504;2023-05-01T17:44:49;17.00;99.90
52439;DHT22;38359;53.150;6.504;2023-05-01T17:55:15;15.90;99.90
52439;DHT22;38359;53.150;6.504;2023-05-01T18:05:41;15.30;99.90
52439;DHT22;38359;53.150;6.504;2023-05-01T18:16:07;14.80;99.90
52439;DHT22;38359;53.150;6.504;2023-05-01T18:26:33;14.10;99.90
52439;DHT22;38359;53.150;6.504;2023-05-01T18:36:59;14.00;99.90
52439;DHT22;38359;53.150;6.504;2023-05-01T18:47:25;14.00;99.90
52439;DHT22;38359;53.150;6.504;2023-05-01T18:57:51;13.70;99.90
52439;DHT22;38359;53.150;6.504;2023-05-01T19:08:17;13.50;99.90
52439;DHT22;38359;53.150;6.504;2023-05-01T19:18:42;12.80;99.90
52439;DHT22;38359;53.150;6.504;2023-05-01T19:29:08;12.80;99.90
52439;DHT22;38359;53.150;6.504;2023-05-01T19:39:35;12.50;99.90
52439;DHT22;38359;53.150;6.504;2023-05-01T19:50:01;12.40;99.90
52439;DHT22;38359;53.150;6.504;2023-05-01T20:00:27;12.60;99.90
52439;DHT22;38359;53.150;6.504;2023-05-01T20:10:53;12.60;99.90
52439;DHT22;38359;53.150;6.504;2023-05-01T20:21:19;12.50;99.90
52439;DHT22;38359;53.150;6.504;2023-05-01T20:31:48;12.20;99.90
52439;DHT22;38359;53.150;6.504;2023-05-01T20:42:15;12.20;99.90
52439;DHT22;38359;53.150;6.504;2023-05-01T20:52:41;12.20;99.90
52439;DHT22;38359;53.150;6.504;2023-05-01T21:03:07;12.20;99.90
52439;DHT22;38359;53.150;6.504;2023-05-01T21:13:33;12.10;99.90
52439;DHT22;38359;53.150;6.504;2023-05-01T21:23:59;12.20;99.90
52439;DHT22;38359;53.150;6.504;2023-05-01T21:34:25;11.90;99.90
52439;DHT22;38359;53.150;6.504;2023-05-01T21:44:51;12.00;99.90
52439;DHT22;38359;53.150;6.504;2023-05-01T21:55:21;12.00;99.90
52439;DHT22;38359;53.150;6.504;2023-05-01T22:05:50;11.80;99.90
52439;DHT22;38359;53.150;6.504;2023-05-01T22:16:17;11.60;99.90
52439;DHT22;38359;53.150;6.504;2023-05-01T22:26:43;11.80;99.90
52439;DHT22;38359;53.150;6.504;2023-05-01T22:37:10;11.70;99.90
52439;DHT22;38359;53.150;6.504;2023-05-01T22:47:36;11.70;99.90
52439;DHT22;38359;53.150;6.504;2023-05-01T22:58:02;11.60;99.90
52439;DHT22;38359;53.150;6.504;2023-05-01T23:08:27;11.70;99.90
52439;DHT22;38359;53.150;6.504;2023-05-01T23:18:54;11.50;99.90
52439;DHT22;38359;53.150;6.504;2023-05-01T23:29:21;11.40;99.90
52439;DHT22;38359;53.150;6.504;2023-05-01T23:39:48;11.40;99.90
52439;DHT22;38359;53.150;6.504;2023-05-01T23:50:14;11.20;99.90
